createdAt,value
2018-04-27T00:01:40.879Z,6.37
2018-04-27T00:04:09.042Z,5.77
2018-04-27T00:06:38.004Z,7.20
2018-04-27T00:09:06.154Z,5.50
2018-04-27T00:11:35.483Z,5.20
2018-04-27T00:14:03.774Z,6.93
2018-04-27T00:16:32.766Z,5.87
2018-04-27T00:19:01.703Z,6.77
2018-04-27T00:21:29.860Z,6.07
2018-04-27T00:23:58.021Z,8.37
2018-04-27T00:26:26.315Z,7.57
2018-04-27T00:28:54.462Z,7.27
2018-04-27T00:31:22.631Z,5.80
2018-04-27T00:33:51.577Z,4.97
2018-04-27T00:36:19.729Z,3.83
2018-04-27T00:38:47.880Z,5.20
2018-04-27T00:41:16.039Z,5.07
2018-04-27T00:43:44.956Z,5.07
2018-04-27T00:46:13.104Z,5.80
2018-04-27T00:48:42.028Z,7.10
2018-04-27T00:51:10.213Z,7.00
2018-04-27T00:53:38.491Z,7.30
2018-04-27T00:56:06.863Z,4.27
2018-04-27T00:58:35.002Z,6.23
2018-04-27T01:01:03.915Z,7.67
2018-04-27T01:03:32.063Z,7.13
2018-04-27T01:06:00.977Z,10.60
2018-04-27T01:08:30.069Z,8.00
2018-04-27T01:10:58.298Z,8.27
2018-04-27T01:13:26.447Z,5.97
2018-04-27T01:15:54.730Z,8.07
2018-04-27T01:18:22.904Z,8.70
2018-04-27T01:20:51.178Z,10.23
2018-04-27T01:23:19.443Z,7.23
2018-04-27T01:25:47.607Z,8.40
2018-04-27T01:28:15.778Z,9.87
2018-04-27T01:30:44.752Z,7.47
2018-04-27T01:33:13.663Z,9.43
2018-04-27T01:35:42.651Z,10.40
2018-04-27T01:38:10.814Z,14.67
2018-04-27T01:40:38.972Z,10.00
2018-04-27T01:43:07.891Z,12.63
2018-04-27T01:45:36.151Z,11.97
2018-04-27T01:48:04.423Z,9.00
2018-04-27T01:50:33.341Z,9.80
2018-04-27T01:53:01.493Z,11.87
2018-04-27T01:55:29.703Z,9.23
2018-04-27T01:57:57.993Z,11.10
2018-04-27T02:00:26.249Z,10.33
2018-04-27T02:02:54.527Z,11.23
2018-04-27T02:05:22.741Z,13.77
2018-04-27T02:07:50.874Z,11.27
2018-04-27T02:10:19.043Z,9.87
2018-04-27T02:12:47.267Z,13.13
2018-04-27T02:15:19.399Z,11.17
2018-04-27T02:17:47.502Z,10.97
2018-04-27T02:20:15.873Z,10.50
2018-04-27T02:22:44.059Z,12.03
2018-04-27T02:25:12.990Z,10.77
2018-04-27T02:27:41.336Z,10.03
2018-04-27T02:30:10.214Z,10.93
2018-04-27T02:32:38.311Z,10.67
2018-04-27T02:35:06.502Z,8.23
2018-04-27T02:37:34.609Z,12.83
2018-04-27T02:40:02.817Z,10.47
2018-04-27T02:42:31.041Z,12.23
2018-04-27T02:44:59.972Z,9.40
2018-04-27T02:47:28.077Z,10.47
2018-04-27T02:49:56.168Z,11.37
2018-04-27T02:52:24.290Z,9.93
2018-04-27T02:54:53.845Z,10.37
2018-04-27T02:57:22.046Z,8.63
2018-04-27T02:59:50.156Z,9.70
2018-04-27T03:02:18.580Z,13.30
2018-04-27T03:04:46.682Z,12.23
2018-04-27T03:07:14.802Z,11.13
2018-04-27T03:09:42.905Z,11.13
2018-04-27T03:12:10.997Z,8.83
2018-04-27T03:14:39.113Z,8.80
2018-04-27T03:17:07.263Z,11.53
2018-04-27T03:19:36.128Z,8.63
2018-04-27T03:22:04.317Z,8.83
2018-04-27T03:24:32.407Z,12.50
2018-04-27T03:27:02.668Z,9.47
2018-04-27T03:29:30.779Z,8.60
2018-04-27T03:31:58.902Z,9.30
2018-04-27T03:34:27.123Z,9.23
2018-04-27T03:36:55.520Z,10.57
2018-04-27T03:39:24.387Z,12.40
2018-04-27T03:41:52.479Z,10.87
2018-04-27T03:44:21.361Z,10.63
2018-04-27T03:46:49.465Z,9.87
2018-04-27T03:49:17.576Z,10.30
2018-04-27T03:51:45.750Z,11.87
2018-04-27T03:54:13.959Z,9.83
2018-04-27T03:56:42.059Z,10.23
2018-04-27T03:59:10.927Z,11.13
2018-04-27T04:01:51.553Z,13.47
2018-04-27T04:04:31.545Z,10.73
2018-04-27T04:07:00.401Z,10.83
2018-04-27T04:09:29.720Z,11.07
2018-04-27T04:11:57.990Z,8.07
2018-04-27T04:14:26.181Z,7.97
2018-04-27T04:16:54.411Z,12.33
2018-04-27T04:19:22.612Z,12.63
2018-04-27T04:21:50.717Z,11.80
2018-04-27T04:24:19.589Z,8.27
2018-04-27T04:26:47.756Z,9.83
2018-04-27T04:29:15.823Z,11.23
2018-04-27T04:31:43.911Z,10.23
2018-04-27T04:34:12.785Z,9.33
2018-04-27T04:36:40.888Z,8.93
2018-04-27T04:39:09.800Z,8.47
2018-04-27T04:41:37.913Z,8.40
2018-04-27T04:44:06.147Z,10.57
2018-04-27T04:46:34.374Z,9.40
2018-04-27T04:49:02.889Z,8.97
2018-04-27T04:51:31.753Z,11.83
2018-04-27T04:54:00.457Z,8.63
2018-04-27T04:56:29.346Z,10.30
2018-04-27T04:58:58.211Z,9.07
2018-04-27T05:01:26.350Z,8.77
2018-04-27T05:03:54.556Z,8.53
2018-04-27T05:06:22.697Z,8.63
2018-04-27T05:08:50.801Z,13.83
2018-04-27T05:11:19.968Z,8.83
2018-04-27T05:13:48.140Z,9.30
2018-04-27T05:16:16.236Z,10.07
2018-04-27T05:18:53.960Z,6.23
2018-04-27T05:21:22.813Z,8.37
2018-04-27T05:23:50.944Z,7.13
2018-04-27T05:26:20.662Z,7.50
2018-04-27T05:28:48.766Z,8.97
2018-04-27T05:31:23.805Z,9.10
2018-04-27T05:33:51.906Z,11.90
2018-04-27T05:36:20.819Z,8.03
2018-04-27T05:38:49.927Z,9.93
2018-04-27T05:41:18.017Z,8.90
2018-04-27T05:43:46.127Z,9.70
2018-04-27T05:46:14.295Z,8.13
2018-04-27T05:48:42.364Z,9.10
2018-04-27T05:51:10.608Z,10.37
2018-04-27T05:53:38.715Z,7.40
2018-04-27T05:56:06.827Z,7.90
2018-04-27T05:58:34.932Z,7.90
2018-04-27T06:01:03.761Z,6.50
2018-04-27T06:03:43.838Z,8.67
2018-04-27T06:06:12.709Z,6.73
2018-04-27T06:08:40.847Z,7.43
2018-04-27T06:11:08.939Z,8.93
2018-04-27T06:13:37.153Z,8.73
2018-04-27T06:16:06.062Z,8.10
2018-04-27T06:18:36.720Z,7.50
2018-04-27T06:21:04.808Z,7.60
2018-04-27T06:23:33.061Z,6.97
2018-04-27T06:26:01.296Z,7.07
2018-04-27T06:28:45.195Z,4.90
2018-04-27T06:31:13.297Z,6.20
2018-04-27T06:33:42.168Z,6.17
2018-04-27T06:36:10.284Z,6.23
2018-04-27T06:38:38.798Z,6.07
2018-04-27T06:41:06.886Z,7.53
2018-04-27T06:43:34.982Z,7.70
2018-04-27T06:46:03.852Z,8.40
2018-04-27T06:48:32.052Z,6.97
2018-04-27T06:51:01.023Z,7.07
2018-04-27T06:53:30.639Z,7.87
2018-04-27T06:55:58.897Z,6.03
2018-04-27T06:58:27.028Z,7.87
2018-04-27T07:00:55.130Z,7.73
2018-04-27T07:03:23.233Z,8.50
2018-04-27T07:05:52.849Z,6.13
2018-04-27T07:08:21.722Z,5.83
2018-04-27T07:10:49.809Z,4.80
2018-04-27T07:13:18.765Z,8.70
2018-04-27T07:15:47.046Z,4.63
2018-04-27T07:18:15.299Z,5.33
2018-04-27T07:20:43.417Z,7.00
2018-04-27T07:23:11.517Z,6.20
2018-04-27T07:25:40.385Z,5.17
2018-04-27T07:28:10.015Z,5.87
2018-04-27T07:30:38.882Z,5.70
2018-04-27T07:33:06.981Z,4.00
2018-04-27T07:35:35.110Z,4.23
2018-04-27T07:38:03.247Z,5.27
2018-04-27T07:40:31.603Z,5.83
2018-04-27T07:43:01.428Z,10.47
2018-04-27T07:45:29.537Z,5.83
2018-04-27T07:47:57.665Z,5.33
2018-04-27T07:50:25.809Z,5.20
2018-04-27T07:52:55.412Z,4.30
2018-04-27T07:55:24.303Z,7.33
2018-04-27T07:57:52.478Z,4.07
2018-04-27T08:00:20.576Z,3.83
2018-04-27T08:02:49.938Z,5.30
2018-04-27T08:05:18.061Z,7.47
2018-04-27T08:07:46.171Z,8.13
2018-04-27T08:10:15.485Z,6.27
2018-04-27T08:12:43.658Z,7.70
2018-04-27T08:15:11.782Z,4.87
2018-04-27T08:17:40.056Z,5.33
2018-04-27T08:20:08.902Z,7.73
2018-04-27T08:22:38.603Z,5.73
2018-04-27T08:25:06.703Z,6.67
2018-04-27T08:27:34.848Z,6.23
2018-04-27T08:30:03.050Z,8.47
2018-04-27T08:32:32.710Z,8.23
2018-04-27T08:35:00.806Z,6.30
2018-04-27T08:37:28.921Z,6.73
2018-04-27T08:39:57.794Z,7.43
2018-04-27T08:42:26.678Z,8.47
2018-04-27T08:44:54.781Z,6.07
2018-04-27T08:47:22.868Z,5.67
2018-04-27T08:49:51.903Z,7.07
2018-04-27T08:52:20.689Z,4.67
2018-04-27T08:54:48.816Z,7.47
2018-04-27T08:57:17.694Z,8.43
2018-04-27T08:59:45.803Z,6.93
2018-04-27T09:02:13.950Z,5.80
2018-04-27T09:04:42.095Z,7.67
2018-04-27T09:07:10.362Z,7.70
2018-04-27T09:09:38.481Z,7.40
2018-04-27T09:12:06.620Z,8.27
2018-04-27T09:14:35.619Z,6.63
2018-04-27T09:17:03.859Z,6.60
2018-04-27T09:19:32.077Z,7.13
2018-04-27T09:22:01.140Z,6.37
2018-04-27T09:24:30.734Z,6.53
2018-04-27T09:26:58.968Z,7.47
2018-04-27T09:29:27.945Z,7.77
2018-04-27T09:31:57.581Z,5.07
2018-04-27T09:34:25.674Z,7.30
2018-04-27T09:36:53.784Z,10.47
2018-04-27T09:39:22.650Z,5.33
2018-04-27T09:41:52.711Z,5.37
2018-04-27T09:44:20.869Z,10.07
2018-04-27T09:46:49.026Z,5.43
2018-04-27T09:49:17.147Z,7.07
2018-04-27T09:51:45.282Z,6.50
2018-04-27T09:54:14.159Z,5.87
2018-04-27T09:56:42.344Z,5.83
2018-04-27T09:59:10.524Z,5.40
2018-04-27T10:01:38.614Z,7.30
2018-04-27T10:04:07.490Z,7.00
2018-04-27T10:06:36.361Z,8.10
2018-04-27T10:09:04.569Z,6.23
2018-04-27T10:11:33.460Z,5.13
2018-04-27T10:14:02.331Z,6.33
2018-04-27T10:16:32.552Z,6.00
2018-04-27T10:19:01.529Z,8.17
2018-04-27T10:21:29.738Z,6.67
2018-04-27T10:23:58.609Z,6.47
2018-04-27T10:26:27.494Z,5.37
2018-04-27T10:28:55.757Z,7.60
2018-04-27T10:31:23.951Z,7.43
2018-04-27T10:33:52.369Z,3.63
2018-04-27T10:36:20.502Z,8.00
2018-04-27T10:38:48.775Z,6.93
2018-04-27T10:41:16.965Z,7.00
2018-04-27T10:43:45.131Z,7.63
2018-04-27T10:46:14.745Z,6.03
2018-04-27T10:48:44.013Z,7.07
2018-04-27T10:51:12.315Z,5.37
2018-04-27T10:53:40.446Z,6.07
2018-04-27T10:56:08.623Z,6.17
2018-04-27T10:58:37.446Z,4.23
2018-04-27T11:01:05.538Z,6.07
2018-04-27T11:03:33.642Z,5.63
2018-04-27T11:06:01.742Z,5.83
2018-04-27T11:08:30.038Z,6.67
2018-04-27T11:10:58.276Z,9.50
2018-04-27T11:13:26.262Z,6.80
2018-04-27T11:15:54.395Z,9.47
2018-04-27T11:18:22.567Z,5.77
2018-04-27T11:20:50.784Z,6.83
2018-04-27T11:23:19.138Z,4.20
2018-04-27T11:25:47.256Z,5.57
2018-04-27T11:28:15.356Z,4.90
2018-04-27T11:30:43.580Z,4.77
2018-04-27T11:33:11.697Z,6.87
2018-04-27T11:35:40.569Z,5.97
2018-04-27T11:38:09.264Z,6.27
2018-04-27T11:40:38.135Z,6.27
2018-04-27T11:43:06.352Z,5.70
2018-04-27T11:45:34.482Z,4.13
2018-04-27T11:48:02.771Z,5.10
2018-04-27T11:50:31.646Z,5.20
2018-04-27T11:52:59.782Z,6.30
2018-04-27T11:55:27.904Z,5.90
2018-04-27T11:57:56.007Z,4.80
2018-04-27T12:00:25.881Z,6.03
2018-04-27T12:02:54.000Z,4.37
2018-04-27T12:05:22.121Z,8.03
2018-04-27T12:07:50.225Z,4.83
2018-04-27T12:10:19.120Z,8.50
2018-04-27T12:12:47.230Z,5.13
2018-04-27T12:15:15.431Z,4.93
2018-04-27T12:17:43.563Z,4.93
2018-04-27T12:20:11.812Z,5.03
2018-04-27T12:22:40.669Z,6.10
2018-04-27T12:25:09.574Z,6.10
2018-04-27T12:27:37.661Z,5.70
2018-04-27T12:30:06.547Z,5.10
2018-04-27T12:32:35.429Z,5.60
2018-04-27T12:35:04.291Z,6.90
2018-04-27T12:37:32.520Z,8.43
2018-04-27T12:40:01.071Z,7.50
2018-04-27T12:42:29.166Z,7.60
2018-04-27T12:44:57.363Z,5.37
2018-04-27T12:47:25.537Z,6.00
2018-04-27T12:49:53.797Z,5.50
2018-04-27T12:52:22.874Z,6.27
2018-04-27T12:54:51.760Z,9.37
2018-04-27T12:57:20.617Z,8.30
2018-04-27T12:59:48.728Z,6.53
2018-04-27T13:02:17.612Z,7.77
2018-04-27T13:04:46.494Z,6.80
2018-04-27T13:07:14.582Z,6.97
2018-04-27T13:09:43.565Z,7.83
2018-04-27T13:12:11.839Z,5.80
2018-04-27T13:14:40.100Z,8.57
2018-04-27T13:17:08.292Z,7.63
2018-04-27T13:19:36.402Z,6.00
2018-04-27T13:22:04.578Z,6.83
2018-04-27T13:24:32.793Z,7.30
2018-04-27T13:27:00.890Z,4.90
2018-04-27T13:29:29.779Z,5.60
2018-04-27T13:31:59.025Z,7.23
2018-04-27T13:34:27.295Z,6.87
2018-04-27T13:36:55.440Z,5.83
2018-04-27T13:39:24.457Z,6.27
2018-04-27T13:41:52.593Z,5.30
2018-04-27T13:44:21.457Z,8.33
2018-04-27T13:46:49.569Z,4.47
2018-04-27T13:49:18.439Z,6.33
2018-04-27T13:51:46.942Z,6.43
2018-04-27T13:54:14.985Z,4.90
2018-04-27T13:56:43.194Z,6.40
2018-04-27T13:59:12.934Z,4.93
2018-04-27T14:01:41.046Z,6.87
2018-04-27T14:04:09.153Z,6.00
2018-04-27T14:06:37.270Z,3.87
2018-04-27T14:09:05.532Z,5.27
2018-04-27T14:11:33.948Z,5.40
2018-04-27T14:14:02.091Z,5.77
2018-04-27T14:16:30.193Z,4.00
2018-04-27T14:18:59.095Z,5.17
2018-04-27T14:21:28.025Z,6.37
2018-04-27T14:23:56.075Z,5.53
2018-04-27T14:26:24.182Z,5.33
2018-04-27T14:28:53.668Z,3.47
2018-04-27T14:31:21.779Z,4.77
2018-04-27T14:33:49.980Z,4.20
2018-04-27T14:36:18.768Z,6.57
2018-04-27T14:38:47.643Z,5.67
2018-04-27T14:41:16.634Z,5.57
2018-04-27T14:43:44.787Z,4.93
2018-04-27T14:46:13.088Z,3.43
2018-04-27T14:48:41.237Z,4.07
2018-04-27T14:51:10.175Z,4.27
2018-04-27T14:53:39.161Z,5.07
2018-04-27T14:56:08.141Z,8.40
2018-04-27T14:58:36.477Z,4.00
2018-04-27T15:01:04.606Z,6.40
2018-04-27T15:03:33.667Z,5.60
2018-04-27T15:06:01.964Z,3.93
2018-04-27T15:08:30.111Z,5.50
2018-04-27T15:10:58.212Z,3.47
2018-04-27T15:13:26.367Z,5.23
2018-04-27T15:15:55.076Z,4.13
2018-04-27T15:18:23.269Z,4.03
2018-04-27T15:20:51.544Z,3.90
2018-04-27T15:23:19.646Z,5.07
2018-04-27T15:25:47.979Z,4.70
2018-04-27T15:28:17.579Z,5.07
2018-04-27T15:30:46.458Z,4.60
2018-04-27T15:33:15.349Z,4.57
2018-04-27T15:35:43.465Z,4.37
2018-04-27T15:38:11.566Z,4.93
2018-04-27T15:40:39.867Z,3.63
2018-04-27T15:43:08.825Z,4.67
2018-04-27T15:45:36.996Z,6.40
2018-04-27T15:48:05.850Z,4.40
2018-04-27T15:50:34.722Z,6.60
2018-04-27T15:53:02.851Z,3.93
2018-04-27T15:55:31.017Z,4.53
2018-04-27T15:57:59.132Z,3.50
2018-04-27T16:00:27.462Z,4.73
2018-04-27T16:02:55.573Z,5.57
2018-04-27T16:05:24.486Z,6.37
2018-04-27T16:07:53.294Z,4.73
2018-04-27T16:10:22.165Z,4.47
2018-04-27T16:12:50.374Z,5.80
2018-04-27T16:15:18.683Z,4.53
2018-04-27T16:17:46.892Z,4.70
2018-04-27T16:20:14.994Z,5.30
2018-04-27T16:22:43.099Z,7.40
2018-04-27T16:25:11.290Z,4.60
2018-04-27T16:27:39.407Z,3.23
2018-04-27T16:30:07.593Z,5.30
2018-04-27T16:32:35.704Z,4.33
2018-04-27T16:35:03.797Z,6.70
2018-04-27T16:37:32.730Z,6.83
2018-04-27T16:40:01.594Z,4.23
2018-04-27T16:42:29.698Z,7.83
2018-04-27T16:44:57.824Z,6.17
2018-04-27T16:47:26.685Z,3.23
2018-04-27T16:49:54.891Z,2.53
2018-04-27T16:52:23.004Z,3.83
2018-04-27T16:54:51.094Z,5.33
2018-04-27T16:57:19.272Z,3.83
2018-04-27T16:59:47.362Z,5.30
2018-04-27T17:02:15.521Z,3.53
2018-04-27T17:04:43.663Z,6.60
2018-04-27T17:07:12.006Z,4.13
2018-04-27T17:09:40.161Z,3.57
2018-04-27T17:12:08.428Z,4.77
2018-04-27T17:14:36.569Z,3.23
2018-04-27T17:17:04.688Z,5.10
2018-04-27T17:19:32.863Z,4.67
2018-04-27T17:22:00.979Z,3.50
2018-04-27T17:24:29.915Z,4.03
2018-04-27T17:26:58.013Z,4.23
2018-04-27T17:29:27.103Z,3.63
2018-04-27T17:31:55.339Z,4.80
2018-04-27T17:34:23.672Z,4.10
2018-04-27T17:36:51.886Z,6.43
2018-04-27T17:39:20.722Z,7.37
2018-04-27T17:41:48.809Z,4.33
2018-04-27T17:44:17.695Z,3.83
2018-04-27T17:46:45.811Z,7.33
2018-04-27T17:49:14.839Z,9.30
2018-04-27T17:51:42.976Z,7.07
2018-04-27T17:54:11.085Z,10.97
2018-04-27T17:56:39.296Z,9.23
2018-04-27T17:59:08.182Z,5.37
2018-04-27T18:01:37.055Z,8.50
2018-04-27T18:04:05.330Z,13.07
2018-04-27T18:06:33.443Z,8.20
2018-04-27T18:09:01.535Z,10.23
2018-04-27T18:11:29.683Z,4.17
2018-04-27T18:13:57.747Z,5.43
2018-04-27T18:16:26.780Z,3.47
2018-04-27T18:18:54.912Z,4.73
2018-04-27T18:21:23.765Z,3.30
2018-04-27T18:23:52.026Z,3.67
2018-04-27T18:26:20.151Z,5.33
2018-04-27T18:28:49.063Z,2.77
2018-04-27T18:31:17.908Z,4.63
2018-04-27T18:33:46.004Z,4.10
2018-04-27T18:36:14.993Z,4.27
2018-04-27T18:38:43.862Z,3.70
2018-04-27T18:41:12.039Z,5.27
2018-04-27T18:43:41.036Z,3.93
2018-04-27T18:46:09.099Z,5.40
2018-04-27T18:48:38.098Z,7.53
2018-04-27T18:51:06.244Z,3.77
2018-04-27T18:53:35.451Z,4.27
2018-04-27T18:56:07.483Z,3.30
2018-04-27T18:58:35.777Z,4.70
2018-04-27T19:01:03.994Z,3.13
2018-04-27T19:03:32.332Z,3.70
2018-04-27T19:06:04.038Z,5.43
2018-04-27T19:08:32.139Z,5.33
2018-04-27T19:11:00.433Z,3.60
2018-04-27T19:13:28.534Z,4.90
2018-04-27T19:15:58.504Z,3.33
2018-04-27T19:18:26.771Z,5.33
2018-04-27T19:20:55.191Z,6.43
2018-04-27T19:23:23.329Z,4.40
2018-04-27T19:25:52.523Z,7.00
2018-04-27T19:28:20.815Z,5.17
2018-04-27T19:30:48.935Z,7.53
2018-04-27T19:33:17.827Z,7.60
2018-04-27T19:35:46.154Z,6.53
2018-04-27T19:38:14.408Z,6.43
2018-04-27T19:40:43.510Z,7.80
2018-04-27T19:43:11.651Z,5.00
2018-04-27T19:45:39.813Z,5.10
2018-04-27T19:48:07.989Z,10.63
2018-04-27T19:50:38.628Z,5.70
2018-04-27T19:53:07.384Z,5.63
2018-04-27T19:55:35.694Z,6.93
2018-04-27T19:58:04.679Z,6.70
2018-04-27T20:00:33.446Z,6.33
2018-04-27T20:03:01.831Z,6.03
2018-04-27T20:05:29.989Z,5.23
2018-04-27T20:07:58.134Z,4.50
2018-04-27T20:10:41.388Z,5.37
2018-04-27T20:13:12.181Z,4.77
2018-04-27T20:15:42.853Z,3.60
2018-04-27T20:18:16.892Z,6.33
2018-04-27T20:20:46.021Z,5.60
2018-04-27T20:23:15.059Z,6.00
2018-04-27T20:25:43.211Z,6.00
2018-04-27T20:28:12.042Z,5.90
2018-04-27T20:30:40.249Z,4.87
2018-04-27T20:33:14.401Z,5.30
2018-04-27T20:35:42.664Z,6.13
2018-04-27T20:38:16.432Z,4.53
2018-04-27T20:40:45.625Z,5.47
2018-04-27T20:43:14.590Z,4.73
2018-04-27T20:45:42.780Z,7.37
2018-04-27T20:48:14.780Z,5.10
2018-04-27T20:50:50.722Z,5.53
2018-04-27T20:53:20.968Z,3.83
2018-04-27T20:56:09.309Z,5.03
2018-04-27T20:58:37.500Z,6.87
2018-04-27T21:01:05.941Z,4.67
2018-04-27T21:03:35.031Z,5.13
2018-04-27T21:06:03.145Z,5.50
2018-04-27T21:08:31.473Z,5.13
2018-04-27T21:11:00.202Z,5.20
2018-04-27T21:13:28.424Z,7.00
2018-04-27T21:15:56.842Z,4.23
2018-04-27T21:18:24.990Z,4.57
2018-04-27T21:20:53.866Z,7.37
2018-04-27T21:23:22.633Z,6.00
2018-04-27T21:25:51.910Z,5.43
2018-04-27T21:28:32.279Z,7.40
2018-04-27T21:31:00.526Z,4.87
2018-04-27T21:33:32.216Z,5.50
2018-04-27T21:36:06.012Z,6.17
2018-04-27T21:38:44.710Z,4.93
2018-04-27T21:41:22.695Z,7.70
2018-04-27T21:43:50.923Z,6.50
2018-04-27T21:46:25.497Z,6.73
2018-04-27T21:48:54.410Z,4.20
2018-04-27T21:51:29.961Z,6.13
2018-04-27T21:53:58.063Z,6.03
2018-04-27T21:56:26.175Z,8.70
2018-04-27T21:58:55.280Z,5.30
2018-04-27T22:01:24.963Z,5.33
2018-04-27T22:03:59.810Z,3.93
2018-04-27T22:06:28.679Z,4.67
2018-04-27T22:08:57.738Z,7.03
2018-04-27T22:11:31.700Z,8.77
2018-04-27T22:14:00.596Z,4.43
2018-04-27T22:16:37.285Z,3.70
2018-04-27T22:19:08.091Z,6.10
2018-04-27T22:21:38.028Z,5.97
2018-04-27T22:24:08.699Z,4.63
2018-04-27T22:26:38.411Z,8.27
2018-04-27T22:29:13.085Z,9.37
2018-04-27T22:31:41.243Z,5.10
2018-04-27T22:34:09.334Z,6.50
2018-04-27T22:36:48.778Z,6.37
2018-04-27T22:39:29.591Z,6.53
2018-04-27T22:45:13.368Z,6.63
2018-04-27T22:47:57.283Z,8.07
2018-04-27T22:50:25.377Z,8.20
2018-04-27T22:52:53.470Z,6.80
2018-04-27T22:55:21.568Z,6.43
2018-04-27T22:57:51.200Z,5.43
2018-04-27T23:00:19.426Z,8.47
2018-04-27T23:02:47.549Z,5.27
2018-04-27T23:05:23.270Z,7.57
2018-04-27T23:07:52.265Z,8.80
2018-04-27T23:10:23.217Z,6.87
2018-04-27T23:13:03.600Z,8.10
2018-04-27T23:15:47.388Z,4.90
2018-04-27T23:18:18.440Z,5.90
2018-04-27T23:20:48.383Z,7.83
2018-04-27T23:23:17.225Z,6.93
2018-04-27T23:25:46.175Z,5.47
2018-04-27T23:28:14.375Z,5.83
2018-04-27T23:30:43.389Z,9.63
2018-04-27T23:33:12.954Z,6.87
2018-04-27T23:35:59.953Z,8.10
2018-04-27T23:38:29.025Z,7.07
2018-04-27T23:40:57.131Z,5.33
2018-04-27T23:43:28.300Z,5.17
2018-04-27T23:45:56.424Z,6.17
2018-04-27T23:48:25.293Z,6.60
2018-04-27T23:50:54.143Z,6.43
2018-04-27T23:53:22.252Z,6.53
2018-04-27T23:55:51.149Z,7.50
2018-04-27T23:58:25.690Z,7.17
